sensor_id;sensor_type;location;lat;lon;timestamp;P1;durP1;ratioP1;P2;durP2;ratioP2
7383;SDS011;3733;47.994;8.820;2023-05-23T00:01:03;19.60;;;13.10;;
7383;SDS011;3733;47.994;8.820;2023-05-23T00:03:31;16.23;;;12.20;;
7383;SDS011;3733;47.994;8.820;2023-05-23T00:05:57;18.37;;;13.10;;
7383;SDS011;3733;47.994;8.820;2023-05-23T00:08:23;24.00;;;13.40;;
7383;SDS011;3733;47.994;8.820;2023-05-23T00:10:49;18.30;;;13.20;;
7383;SDS011;3733;47.994;8.820;2023-05-23T00:13:15;17.20;;;12.30;;
7383;SDS011;3733;47.994;8.820;2023-05-23T00:15:41;17.67;;;13.00;;
7383;SDS011;3733;47.994;8.820;2023-05-23T00:18:07;16.40;;;12.20;;
7383;SDS011;3733;47.994;8.820;2023-05-23T00:20:35;17.53;;;12.20;;
7383;SDS011;3733;47.994;8.820;2023-05-23T00:23:04;17.73;;;13.07;;
7383;SDS011;3733;47.994;8.820;2023-05-23T00:25:31;19.60;;;13.40;;
7383;SDS011;3733;47.994;8.820;2023-05-23T00:28:00;16.63;;;12.87;;
7383;SDS011;3733;47.994;8.820;2023-05-23T00:30:28;23.33;;;13.00;;
7383;SDS011;3733;47.994;8.820;2023-05-23T00:32:54;19.00;;;12.60;;
7383;SDS011;3733;47.994;8.820;2023-05-23T00:35:20;22.17;;;12.73;;
7383;SDS011;3733;47.994;8.820;2023-05-23T00:37:47;26.47;;;12.37;;
7383;SDS011;3733;47.994;8.820;2023-05-23T00:40:15;18.40;;;12.47;;
7383;SDS011;3733;47.994;8.820;2023-05-23T00:42:42;19.20;;;12.40;;
7383;SDS011;3733;47.994;8.820;2023-05-23T00:45:07;17.30;;;12.63;;
7383;SDS011;3733;47.994;8.820;2023-05-23T00:47:33;22.57;;;13.20;;
7383;SDS011;3733;47.994;8.820;2023-05-23T00:49:59;19.33;;;12.80;;
7383;SDS011;3733;47.994;8.820;2023-05-23T00:52:25;16.33;;;12.63;;
7383;SDS011;3733;47.994;8.820;2023-05-23T00:54:50;17.97;;;12.60;;
7383;SDS011;3733;47.994;8.820;2023-05-23T00:57:16;16.70;;;12.00;;
7383;SDS011;3733;47.994;8.820;2023-05-23T00:59:42;25.93;;;13.40;;
7383;SDS011;3733;47.994;8.820;2023-05-23T01:02:09;16.57;;;11.50;;
7383;SDS011;3733;47.994;8.820;2023-05-23T01:04:36;17.90;;;12.80;;
7383;SDS011;3733;47.994;8.820;2023-05-23T01:07:02;17.03;;;12.50;;
7383;SDS011;3733;47.994;8.820;2023-05-23T01:09:28;19.37;;;12.10;;
7383;SDS011;3733;47.994;8.820;2023-05-23T01:14:34;17.83;;;11.83;;
7383;SDS011;3733;47.994;8.820;2023-05-23T01:17:14;16.60;;;11.43;;
7383;SDS011;3733;47.994;8.820;2023-05-23T01:19:55;16.93;;;12.33;;
7383;SDS011;3733;47.994;8.820;2023-05-23T01:28:01;16.33;;;11.23;;
7383;SDS011;3733;47.994;8.820;2023-05-23T01:30:31;16.20;;;11.90;;
7383;SDS011;3733;47.994;8.820;2023-05-23T01:32:59;19.30;;;12.03;;
7383;SDS011;3733;47.994;8.820;2023-05-23T01:35:26;17.90;;;12.37;;
7383;SDS011;3733;47.994;8.820;2023-05-23T01:37:55;17.77;;;12.07;;
7383;SDS011;3733;47.994;8.820;2023-05-23T01:40:21;17.67;;;13.37;;
7383;SDS011;3733;47.994;8.820;2023-05-23T01:42:47;18.33;;;12.83;;
7383;SDS011;3733;47.994;8.820;2023-05-23T01:45:13;17.60;;;12.80;;
7383;SDS011;3733;47.994;8.820;2023-05-23T01:47:40;21.13;;;12.87;;
7383;SDS011;3733;47.994;8.820;2023-05-23T01:50:06;17.50;;;12.13;;
7383;SDS011;3733;47.994;8.820;2023-05-23T01:52:33;15.73;;;11.73;;
7383;SDS011;3733;47.994;8.820;2023-05-23T01:55:00;18.13;;;11.60;;
7383;SDS011;3733;47.994;8.820;2023-05-23T01:57:28;15.80;;;12.10;;
7383;SDS011;3733;47.994;8.820;2023-05-23T01:59:54;18.90;;;13.40;;
7383;SDS011;3733;47.994;8.820;2023-05-23T02:02:20;19.90;;;13.07;;
7383;SDS011;3733;47.994;8.820;2023-05-23T02:04:47;22.67;;;14.57;;
7383;SDS011;3733;47.994;8.820;2023-05-23T02:07:13;19.73;;;13.70;;
7383;SDS011;3733;47.994;8.820;2023-05-23T02:09:39;21.20;;;14.80;;
7383;SDS011;3733;47.994;8.820;2023-05-23T02:12:05;18.77;;;12.63;;
7383;SDS011;3733;47.994;8.820;2023-05-23T02:14:31;21.13;;;12.73;;
7383;SDS011;3733;47.994;8.820;2023-05-23T02:16:57;20.33;;;12.73;;
7383;SDS011;3733;47.994;8.820;2023-05-23T02:19:24;19.13;;;12.37;;
7383;SDS011;3733;47.994;8.820;2023-05-23T02:21:50;17.83;;;12.87;;
7383;SDS011;3733;47.994;8.820;2023-05-23T02:24:16;18.30;;;12.93;;
7383;SDS011;3733;47.994;8.820;2023-05-23T02:26:42;20.50;;;13.57;;
7383;SDS011;3733;47.994;8.820;2023-05-23T02:29:07;17.77;;;13.23;;
7383;SDS011;3733;47.994;8.820;2023-05-23T02:31:33;20.70;;;13.60;;
7383;SDS011;3733;47.994;8.820;2023-05-23T02:33:58;18.67;;;13.33;;
7383;SDS011;3733;47.994;8.820;2023-05-23T02:36:24;26.93;;;13.50;;
7383;SDS011;3733;47.994;8.820;2023-05-23T02:38:50;18.03;;;13.13;;
7383;SDS011;3733;47.994;8.820;2023-05-23T02:41:16;18.90;;;13.53;;
7383;SDS011;3733;47.994;8.820;2023-05-23T02:43:43;18.53;;;12.67;;
7383;SDS011;3733;47.994;8.820;2023-05-23T02:46:10;20.43;;;12.93;;
7383;SDS011;3733;47.994;8.820;2023-05-23T02:48:37;18.67;;;13.70;;
7383;SDS011;3733;47.994;8.820;2023-05-23T02:51:03;22.13;;;13.90;;
7383;SDS011;3733;47.994;8.820;2023-05-23T02:53:28;17.63;;;12.60;;
7383;SDS011;3733;47.994;8.820;2023-05-23T02:55:54;23.03;;;12.43;;
7383;SDS011;3733;47.994;8.820;2023-05-23T02:58:20;17.60;;;13.00;;
7383;SDS011;3733;47.994;8.820;2023-05-23T03:00:45;19.67;;;12.97;;
7383;SDS011;3733;47.994;8.820;2023-05-23T03:03:11;17.60;;;13.20;;
7383;SDS011;3733;47.994;8.820;2023-05-23T03:05:36;20.00;;;12.77;;
7383;SDS011;3733;47.994;8.820;2023-05-23T03:08:02;20.90;;;13.70;;
7383;SDS011;3733;47.994;8.820;2023-05-23T03:10:27;18.90;;;14.00;;
7383;SDS011;3733;47.994;8.820;2023-05-23T03:12:53;25.00;;;15.00;;
7383;SDS011;3733;47.994;8.820;2023-05-23T03:15:19;22.73;;;14.30;;
7383;SDS011;3733;47.994;8.820;2023-05-23T03:17:44;18.80;;;13.30;;
7383;SDS011;3733;47.994;8.820;2023-05-23T03:20:10;18.50;;;12.67;;
7383;SDS011;3733;47.994;8.820;2023-05-23T03:22:36;16.13;;;12.00;;
7383;SDS011;3733;47.994;8.820;2023-05-23T03:25:01;21.50;;;14.07;;
7383;SDS011;3733;47.994;8.820;2023-05-23T03:27:28;17.90;;;13.30;;
7383;SDS011;3733;47.994;8.820;2023-05-23T03:29:53;22.37;;;14.00;;
7383;SDS011;3733;47.994;8.820;2023-05-23T03:32:19;19.13;;;14.20;;
7383;SDS011;3733;47.994;8.820;2023-05-23T03:34:45;20.57;;;13.67;;
7383;SDS011;3733;47.994;8.820;2023-05-23T03:37:10;20.73;;;13.70;;
7383;SDS011;3733;47.994;8.820;2023-05-23T03:39:36;26.20;;;14.53;;
7383;SDS011;3733;47.994;8.820;2023-05-23T03:42:01;23.50;;;14.47;;
7383;SDS011;3733;47.994;8.820;2023-05-23T03:44:27;24.53;;;14.23;;
7383;SDS011;3733;47.994;8.820;2023-05-23T03:46:52;19.60;;;14.30;;
7383;SDS011;3733;47.994;8.820;2023-05-23T03:49:18;23.13;;;12.90;;
7383;SDS011;3733;47.994;8.820;2023-05-23T03:51:44;22.93;;;14.33;;
7383;SDS011;3733;47.994;8.820;2023-05-23T03:54:09;22.50;;;13.40;;
7383;SDS011;3733;47.994;8.820;2023-05-23T03:56:35;21.80;;;14.73;;
7383;SDS011;3733;47.994;8.820;2023-05-23T03:59:00;20.27;;;14.20;;
7383;SDS011;3733;47.994;8.820;2023-05-23T04:01:26;27.03;;;15.40;;
7383;SDS011;3733;47.994;8.820;2023-05-23T04:03:51;23.13;;;14.70;;
7383;SDS011;3733;47.994;8.820;2023-05-23T04:06:17;23.60;;;15.90;;
7383;SDS011;3733;47.994;8.820;2023-05-23T04:08:44;23.13;;;14.90;;
7383;SDS011;3733;47.994;8.820;2023-05-23T04:11:10;23.10;;;16.03;;
7383;SDS011;3733;47.994;8.820;2023-05-23T04:13:35;27.40;;;16.33;;
7383;SDS011;3733;47.994;8.820;2023-05-23T04:16:02;23.17;;;16.13;;
7383;SDS011;3733;47.994;8.820;2023-05-23T04:18:30;28.20;;;15.80;;
7383;SDS011;3733;47.994;8.820;2023-05-23T04:20:57;26.17;;;15.23;;
7383;SDS011;3733;47.994;8.820;2023-05-23T04:23:23;22.03;;;15.07;;
7383;SDS011;3733;47.994;8.820;2023-05-23T04:25:49;28.20;;;15.70;;
7383;SDS011;3733;47.994;8.820;2023-05-23T04:28:15;20.03;;;14.60;;
7383;SDS011;3733;47.994;8.820;2023-05-23T04:30:41;19.80;;;13.30;;
7383;SDS011;3733;47.994;8.820;2023-05-23T04:33:07;19.10;;;12.40;;
7383;SDS011;3733;47.994;8.820;2023-05-23T04:35:34;20.07;;;12.40;;
7383;SDS011;3733;47.994;8.820;2023-05-23T04:38:03;19.23;;;12.40;;
7383;SDS011;3733;47.994;8.820;2023-05-23T04:40:29;20.53;;;13.50;;
7383;SDS011;3733;47.994;8.820;2023-05-23T04:42:55;19.30;;;14.17;;
7383;SDS011;3733;47.994;8.820;2023-05-23T04:45:21;24.13;;;14.30;;
7383;SDS011;3733;47.994;8.820;2023-05-23T04:47:47;24.90;;;17.33;;
7383;SDS011;3733;47.994;8.820;2023-05-23T04:50:12;30.73;;;17.80;;
7383;SDS011;3733;47.994;8.820;2023-05-23T04:52:39;25.97;;;17.27;;
7383;SDS011;3733;47.994;8.820;2023-05-23T04:55:05;25.07;;;16.57;;
7383;SDS011;3733;47.994;8.820;2023-05-23T04:57:32;26.50;;;17.53;;
7383;SDS011;3733;47.994;8.820;2023-05-23T04:59:58;27.40;;;17.70;;
7383;SDS011;3733;47.994;8.820;2023-05-23T05:02:25;29.70;;;17.77;;
7383;SDS011;3733;47.994;8.820;2023-05-23T05:04:51;26.00;;;16.87;;
7383;SDS011;3733;47.994;8.820;2023-05-23T05:07:17;27.07;;;16.30;;
7383;SDS011;3733;47.994;8.820;2023-05-23T05:09:42;22.67;;;15.17;;
7383;SDS011;3733;47.994;8.820;2023-05-23T05:12:08;25.23;;;14.60;;
7383;SDS011;3733;47.994;8.820;2023-05-23T05:14:34;26.20;;;13.63;;
7383;SDS011;3733;47.994;8.820;2023-05-23T05:16:59;28.63;;;13.40;;
7383;SDS011;3733;47.994;8.820;2023-05-23T05:19:26;25.07;;;13.80;;
7383;SDS011;3733;47.994;8.820;2023-05-23T05:21:52;29.00;;;15.67;;
7383;SDS011;3733;47.994;8.820;2023-05-23T05:24:17;29.00;;;18.17;;
7383;SDS011;3733;47.994;8.820;2023-05-23T05:26:45;27.27;;;17.43;;
7383;SDS011;3733;47.994;8.820;2023-05-23T05:29:11;30.57;;;18.83;;
7383;SDS011;3733;47.994;8.820;2023-05-23T05:31:37;24.90;;;14.17;;
7383;SDS011;3733;47.994;8.820;2023-05-23T05:34:03;24.53;;;15.40;;
7383;SDS011;3733;47.994;8.820;2023-05-23T05:36:28;27.90;;;15.23;;
7383;SDS011;3733;47.994;8.820;2023-05-23T05:38:55;33.93;;;17.03;;
7383;SDS011;3733;47.994;8.820;2023-05-23T05:41:21;28.43;;;18.50;;
7383;SDS011;3733;47.994;8.820;2023-05-23T05:43:47;31.60;;;18.97;;
7383;SDS011;3733;47.994;8.820;2023-05-23T05:46:12;32.47;;;20.20;;
7383;SDS011;3733;47.994;8.820;2023-05-23T05:48:38;32.93;;;19.90;;
7383;SDS011;3733;47.994;8.820;2023-05-23T05:51:04;30.43;;;19.67;;
7383;SDS011;3733;47.994;8.820;2023-05-23T05:53:29;31.83;;;21.00;;
7383;SDS011;3733;47.994;8.820;2023-05-23T05:55:55;31.00;;;19.67;;
7383;SDS011;3733;47.994;8.820;2023-05-23T05:58:20;28.10;;;17.20;;
7383;SDS011;3733;47.994;8.820;2023-05-23T06:00:46;30.80;;;17.40;;
7383;SDS011;3733;47.994;8.820;2023-05-23T06:03:12;34.73;;;19.27;;
7383;SDS011;3733;47.994;8.820;2023-05-23T06:05:39;31.83;;;19.70;;
7383;SDS011;3733;47.994;8.820;2023-05-23T06:08:05;32.80;;;21.10;;
7383;SDS011;3733;47.994;8.820;2023-05-23T06:10:31;41.33;;;21.40;;
7383;SDS011;3733;47.994;8.820;2023-05-23T06:12:57;35.60;;;20.90;;
7383;SDS011;3733;47.994;8.820;2023-05-23T06:15:23;33.63;;;20.00;;
7383;SDS011;3733;47.994;8.820;2023-05-23T06:17:50;30.70;;;21.13;;
7383;SDS011;3733;47.994;8.820;2023-05-23T06:20:16;32.63;;;21.00;;
7383;SDS011;3733;47.994;8.820;2023-05-23T06:22:41;30.97;;;19.40;;
7383;SDS011;3733;47.994;8.820;2023-05-23T06:25:07;33.33;;;20.87;;
7383;SDS011;3733;47.994;8.820;2023-05-23T06:27:33;30.10;;;20.43;;
7383;SDS011;3733;47.994;8.820;2023-05-23T06:29:58;29.50;;;19.83;;
7383;SDS011;3733;47.994;8.820;2023-05-23T06:32:24;35.53;;;21.63;;
7383;SDS011;3733;47.994;8.820;2023-05-23T06:34:50;37.47;;;21.00;;
7383;SDS011;3733;47.994;8.820;2023-05-23T06:37:15;35.63;;;21.07;;
7383;SDS011;3733;47.994;8.820;2023-05-23T06:39:42;34.80;;;23.10;;
7383;SDS011;3733;47.994;8.820;2023-05-23T06:42:07;35.00;;;22.50;;
7383;SDS011;3733;47.994;8.820;2023-05-23T06:44:33;37.17;;;22.03;;
7383;SDS011;3733;47.994;8.820;2023-05-23T06:46:59;40.03;;;23.73;;
7383;SDS011;3733;47.994;8.820;2023-05-23T06:49:25;45.47;;;24.87;;
7383;SDS011;3733;47.994;8.820;2023-05-23T06:51:50;38.90;;;24.13;;
7383;SDS011;3733;47.994;8.820;2023-05-23T06:54:16;40.77;;;25.37;;
7383;SDS011;3733;47.994;8.820;2023-05-23T06:56:42;42.80;;;24.10;;
7383;SDS011;3733;47.994;8.820;2023-05-23T06:59:08;48.73;;;27.63;;
7383;SDS011;3733;47.994;8.820;2023-05-23T07:01:33;50.53;;;28.50;;
7383;SDS011;3733;47.994;8.820;2023-05-23T07:03:59;54.80;;;28.33;;
7383;SDS011;3733;47.994;8.820;2023-05-23T07:06:25;56.67;;;30.77;;
7383;SDS011;3733;47.994;8.820;2023-05-23T07:08:52;55.50;;;30.97;;
7383;SDS011;3733;47.994;8.820;2023-05-23T07:11:19;55.70;;;29.17;;
7383;SDS011;3733;47.994;8.820;2023-05-23T07:13:45;56.20;;;30.77;;
7383;SDS011;3733;47.994;8.820;2023-05-23T07:16:11;51.50;;;28.90;;
7383;SDS011;3733;47.994;8.820;2023-05-23T07:18:37;50.30;;;27.93;;
7383;SDS011;3733;47.994;8.820;2023-05-23T07:21:02;60.83;;;31.40;;
7383;SDS011;3733;47.994;8.820;2023-05-23T07:23:31;54.67;;;29.77;;
7383;SDS011;3733;47.994;8.820;2023-05-23T07:25:58;48.27;;;28.07;;
7383;SDS011;3733;47.994;8.820;2023-05-23T07:28:24;60.60;;;31.47;;
7383;SDS011;3733;47.994;8.820;2023-05-23T07:30:49;51.23;;;28.00;;
7383;SDS011;3733;47.994;8.820;2023-05-23T07:33:15;53.50;;;28.27;;
7383;SDS011;3733;47.994;8.820;2023-05-23T07:35:41;48.70;;;26.47;;
7383;SDS011;3733;47.994;8.820;2023-05-23T07:38:07;47.80;;;28.93;;
7383;SDS011;3733;47.994;8.820;2023-05-23T07:40:33;54.27;;;28.23;;
7383;SDS011;3733;47.994;8.820;2023-05-23T07:42:59;49.90;;;26.27;;
7383;SDS011;3733;47.994;8.820;2023-05-23T07:45:24;52.13;;;28.70;;
7383;SDS011;3733;47.994;8.820;2023-05-23T07:47:50;57.23;;;27.30;;
7383;SDS011;3733;47.994;8.820;2023-05-23T07:50:16;46.23;;;25.93;;
7383;SDS011;3733;47.994;8.820;2023-05-23T07:52:42;43.87;;;25.27;;
7383;SDS011;3733;47.994;8.820;2023-05-23T07:55:08;45.40;;;26.60;;
7383;SDS011;3733;47.994;8.820;2023-05-23T07:57:34;40.87;;;24.67;;
7383;SDS011;3733;47.994;8.820;2023-05-23T07:59:59;49.87;;;27.10;;
7383;SDS011;3733;47.994;8.820;2023-05-23T08:02:25;49.07;;;26.47;;
7383;SDS011;3733;47.994;8.820;2023-05-23T08:04:51;41.33;;;25.70;;
7383;SDS011;3733;47.994;8.820;2023-05-23T08:07:17;53.10;;;27.43;;
7383;SDS011;3733;47.994;8.820;2023-05-23T08:09:43;45.07;;;26.00;;
7383;SDS011;3733;47.994;8.820;2023-05-23T08:12:09;53.23;;;27.20;;
7383;SDS011;3733;47.994;8.820;2023-05-23T08:14:35;44.33;;;27.67;;
7383;SDS011;3733;47.994;8.820;2023-05-23T08:17:01;48.67;;;28.10;;
7383;SDS011;3733;47.994;8.820;2023-05-23T08:19:27;61.03;;;27.23;;
7383;SDS011;3733;47.994;8.820;2023-05-23T08:21:52;43.40;;;26.67;;
7383;SDS011;3733;47.994;8.820;2023-05-23T08:24:18;44.40;;;25.90;;
7383;SDS011;3733;47.994;8.820;2023-05-23T08:26:45;49.07;;;25.20;;
7383;SDS011;3733;47.994;8.820;2023-05-23T08:29:11;38.27;;;24.03;;
7383;SDS011;3733;47.994;8.820;2023-05-23T08:31:37;43.87;;;24.07;;
7383;SDS011;3733;47.994;8.820;2023-05-23T08:34:03;39.50;;;24.93;;
7383;SDS011;3733;47.994;8.820;2023-05-23T08:36:29;33.53;;;22.07;;
7383;SDS011;3733;47.994;8.820;2023-05-23T08:38:58;38.63;;;22.40;;
7383;SDS011;3733;47.994;8.820;2023-05-23T08:41:24;34.03;;;21.97;;
7383;SDS011;3733;47.994;8.820;2023-05-23T08:43:51;37.97;;;24.33;;
7383;SDS011;3733;47.994;8.820;2023-05-23T08:46:16;38.77;;;23.73;;
7383;SDS011;3733;47.994;8.820;2023-05-23T08:48:42;40.13;;;23.77;;
7383;SDS011;3733;47.994;8.820;2023-05-23T08:51:12;34.33;;;22.70;;
7383;SDS011;3733;47.994;8.820;2023-05-23T08:53:40;37.33;;;21.50;;
7383;SDS011;3733;47.994;8.820;2023-05-23T08:56:10;36.47;;;22.20;;
7383;SDS011;3733;47.994;8.820;2023-05-23T08:58:36;40.07;;;23.57;;
7383;SDS011;3733;47.994;8.820;2023-05-23T09:01:04;40.53;;;24.80;;
7383;SDS011;3733;47.994;8.820;2023-05-23T09:03:30;34.37;;;22.03;;
7383;SDS011;3733;47.994;8.820;2023-05-23T09:05:57;37.03;;;22.23;;
7383;SDS011;3733;47.994;8.820;2023-05-23T09:08:23;38.47;;;22.60;;
7383;SDS011;3733;47.994;8.820;2023-05-23T09:10:48;37.77;;;22.77;;
7383;SDS011;3733;47.994;8.820;2023-05-23T09:13:15;35.23;;;21.97;;
7383;SDS011;3733;47.994;8.820;2023-05-23T09:18:36;34.20;;;21.03;;
7383;SDS011;3733;47.994;8.820;2023-05-23T09:21:06;30.80;;;21.33;;
7383;SDS011;3733;47.994;8.820;2023-05-23T09:23:34;31.87;;;20.93;;
7383;SDS011;3733;47.994;8.820;2023-05-23T09:26:08;33.87;;;20.03;;
7383;SDS011;3733;47.994;8.820;2023-05-23T09:28:35;30.57;;;19.20;;
7383;SDS011;3733;47.994;8.820;2023-05-23T09:31:02;25.97;;;18.77;;
7383;SDS011;3733;47.994;8.820;2023-05-23T09:33:46;25.70;;;18.87;;
7383;SDS011;3733;47.994;8.820;2023-05-23T09:36:14;32.97;;;21.27;;
7383;SDS011;3733;47.994;8.820;2023-05-23T09:38:41;33.63;;;20.80;;
7383;SDS011;3733;47.994;8.820;2023-05-23T09:41:08;30.70;;;19.10;;
7383;SDS011;3733;47.994;8.820;2023-05-23T09:46:19;32.37;;;19.70;;
7383;SDS011;3733;47.994;8.820;2023-05-23T09:48:48;36.93;;;20.03;;
7383;SDS011;3733;47.994;8.820;2023-05-23T09:51:17;29.13;;;20.07;;
7383;SDS011;3733;47.994;8.820;2023-05-23T09:53:45;29.60;;;18.57;;
7383;SDS011;3733;47.994;8.820;2023-05-23T09:56:11;30.60;;;18.20;;
7383;SDS011;3733;47.994;8.820;2023-05-23T09:58:37;27.40;;;18.60;;
7383;SDS011;3733;47.994;8.820;2023-05-23T10:01:05;27.03;;;18.10;;
7383;SDS011;3733;47.994;8.820;2023-05-23T10:06:07;27.20;;;17.40;;
7383;SDS011;3733;47.994;8.820;2023-05-23T10:09:01;22.13;;;15.27;;
7383;SDS011;3733;47.994;8.820;2023-05-23T10:14:01;25.40;;;17.20;;
7383;SDS011;3733;47.994;8.820;2023-05-23T10:19:23;20.70;;;15.63;;
7383;SDS011;3733;47.994;8.820;2023-05-23T10:22:01;19.90;;;14.20;;
7383;SDS011;3733;47.994;8.820;2023-05-23T10:24:30;20.43;;;14.60;;
7383;SDS011;3733;47.994;8.820;2023-05-23T10:26:57;28.03;;;16.07;;
7383;SDS011;3733;47.994;8.820;2023-05-23T10:29:23;21.40;;;15.23;;
7383;SDS011;3733;47.994;8.820;2023-05-23T10:31:50;24.07;;;14.17;;
7383;SDS011;3733;47.994;8.820;2023-05-23T10:36:56;17.10;;;12.53;;
7383;SDS011;3733;47.994;8.820;2023-05-23T10:39:32;15.67;;;13.20;;
7383;SDS011;3733;47.994;8.820;2023-05-23T10:45:12;20.77;;;14.10;;
7383;SDS011;3733;47.994;8.820;2023-05-23T10:47:39;20.63;;;14.73;;
7383;SDS011;3733;47.994;8.820;2023-05-23T10:50:05;18.63;;;14.43;;
7383;SDS011;3733;47.994;8.820;2023-05-23T10:52:37;17.03;;;13.70;;
7383;SDS011;3733;47.994;8.820;2023-05-23T10:55:13;22.30;;;14.43;;
7383;SDS011;3733;47.994;8.820;2023-05-23T10:57:41;20.70;;;15.73;;
7383;SDS011;3733;47.994;8.820;2023-05-23T11:00:14;23.03;;;16.13;;
7383;SDS011;3733;47.994;8.820;2023-05-23T11:02:53;21.73;;;13.87;;
7383;SDS011;3733;47.994;8.820;2023-05-23T11:05:23;20.90;;;15.77;;
7383;SDS011;3733;47.994;8.820;2023-05-23T11:08:10;24.70;;;15.70;;
7383;SDS011;3733;47.994;8.820;2023-05-23T11:10:50;24.77;;;17.63;;
7383;SDS011;3733;47.994;8.820;2023-05-23T11:13:16;23.23;;;16.00;;
7383;SDS011;3733;47.994;8.820;2023-05-23T11:15:41;24.20;;;17.00;;
7383;SDS011;3733;47.994;8.820;2023-05-23T11:18:09;19.93;;;16.07;;
7383;SDS011;3733;47.994;8.820;2023-05-23T11:20:36;18.60;;;14.73;;
7383;SDS011;3733;47.994;8.820;2023-05-23T11:23:02;22.23;;;15.27;;
7383;SDS011;3733;47.994;8.820;2023-05-23T11:25:48;22.73;;;14.60;;
7383;SDS011;3733;47.994;8.820;2023-05-23T11:28:17;21.13;;;15.40;;
7383;SDS011;3733;47.994;8.820;2023-05-23T11:30:46;20.80;;;15.47;;
7383;SDS011;3733;47.994;8.820;2023-05-23T11:33:13;21.27;;;14.90;;
7383;SDS011;3733;47.994;8.820;2023-05-23T11:35:44;25.03;;;17.53;;
7383;SDS011;3733;47.994;8.820;2023-05-23T11:38:11;24.90;;;17.17;;
7383;SDS011;3733;47.994;8.820;2023-05-23T11:40:39;21.90;;;15.83;;
7383;SDS011;3733;47.994;8.820;2023-05-23T11:43:09;23.80;;;16.67;;
7383;SDS011;3733;47.994;8.820;2023-05-23T11:45:38;23.70;;;16.67;;
7383;SDS011;3733;47.994;8.820;2023-05-23T11:48:11;19.90;;;15.87;;
7383;SDS011;3733;47.994;8.820;2023-05-23T11:50:51;24.33;;;18.00;;
7383;SDS011;3733;47.994;8.820;2023-05-23T11:53:18;27.40;;;18.20;;
7383;SDS011;3733;47.994;8.820;2023-05-23T11:55:57;24.27;;;17.83;;
7383;SDS011;3733;47.994;8.820;2023-05-23T11:58:27;21.27;;;16.27;;
7383;SDS011;3733;47.994;8.820;2023-05-23T12:01:01;19.60;;;16.60;;
7383;SDS011;3733;47.994;8.820;2023-05-23T12:03:28;22.27;;;17.57;;
7383;SDS011;3733;47.994;8.820;2023-05-23T12:05:55;23.93;;;17.17;;
7383;SDS011;3733;47.994;8.820;2023-05-23T12:08:21;19.20;;;15.70;;
7383;SDS011;3733;47.994;8.820;2023-05-23T12:10:50;19.87;;;15.97;;
7383;SDS011;3733;47.994;8.820;2023-05-23T12:13:18;21.00;;;15.53;;
7383;SDS011;3733;47.994;8.820;2023-05-23T12:15:44;19.60;;;15.27;;
7383;SDS011;3733;47.994;8.820;2023-05-23T12:18:10;20.30;;;15.17;;
7383;SDS011;3733;47.994;8.820;2023-05-23T12:20:36;18.97;;;14.37;;
7383;SDS011;3733;47.994;8.820;2023-05-23T12:23:05;21.03;;;14.60;;
7383;SDS011;3733;47.994;8.820;2023-05-23T12:25:40;18.87;;;14.17;;
7383;SDS011;3733;47.994;8.820;2023-05-23T12:28:06;17.87;;;13.37;;
7383;SDS011;3733;47.994;8.820;2023-05-23T12:30:39;21.67;;;13.90;;
7383;SDS011;3733;47.994;8.820;2023-05-23T12:33:07;19.97;;;14.63;;
7383;SDS011;3733;47.994;8.820;2023-05-23T12:35:33;16.23;;;13.17;;
7383;SDS011;3733;47.994;8.820;2023-05-23T12:37:59;21.00;;;15.27;;
7383;SDS011;3733;47.994;8.820;2023-05-23T12:40:25;18.07;;;13.10;;
7383;SDS011;3733;47.994;8.820;2023-05-23T12:42:54;21.33;;;15.00;;
7383;SDS011;3733;47.994;8.820;2023-05-23T12:45:21;21.30;;;14.80;;
7383;SDS011;3733;47.994;8.820;2023-05-23T12:47:48;19.53;;;14.53;;
7383;SDS011;3733;47.994;8.820;2023-05-23T12:50:14;15.73;;;12.50;;
7383;SDS011;3733;47.994;8.820;2023-05-23T12:52:39;13.47;;;11.40;;
7383;SDS011;3733;47.994;8.820;2023-05-23T12:55:06;16.10;;;12.40;;
7383;SDS011;3733;47.994;8.820;2023-05-23T12:57:33;17.83;;;14.13;;
7383;SDS011;3733;47.994;8.820;2023-05-23T12:59:59;18.50;;;14.83;;
7383;SDS011;3733;47.994;8.820;2023-05-23T13:02:25;15.40;;;12.30;;
7383;SDS011;3733;47.994;8.820;2023-05-23T13:04:52;16.70;;;13.20;;
7383;SDS011;3733;47.994;8.820;2023-05-23T13:07:17;17.33;;;12.77;;
7383;SDS011;3733;47.994;8.820;2023-05-23T13:09:43;18.40;;;12.00;;
7383;SDS011;3733;47.994;8.820;2023-05-23T13:12:09;17.00;;;13.27;;
7383;SDS011;3733;47.994;8.820;2023-05-23T13:14:36;13.70;;;11.33;;
7383;SDS011;3733;47.994;8.820;2023-05-23T13:17:02;12.30;;;10.43;;
7383;SDS011;3733;47.994;8.820;2023-05-23T13:19:27;19.33;;;11.80;;
7383;SDS011;3733;47.994;8.820;2023-05-23T13:21:53;15.13;;;11.20;;
7383;SDS011;3733;47.994;8.820;2023-05-23T13:24:19;13.07;;;11.63;;
7383;SDS011;3733;47.994;8.820;2023-05-23T13:26:44;17.27;;;12.07;;
7383;SDS011;3733;47.994;8.820;2023-05-23T13:29:10;12.40;;;10.80;;
7383;SDS011;3733;47.994;8.820;2023-05-23T13:31:36;15.43;;;11.53;;
7383;SDS011;3733;47.994;8.820;2023-05-23T13:34:01;15.60;;;11.27;;
7383;SDS011;3733;47.994;8.820;2023-05-23T13:36:27;12.53;;;10.67;;
7383;SDS011;3733;47.994;8.820;2023-05-23T13:38:53;17.40;;;9.87;;
7383;SDS011;3733;47.994;8.820;2023-05-23T13:41:19;15.10;;;11.50;;
7383;SDS011;3733;47.994;8.820;2023-05-23T13:43:44;13.60;;;11.33;;
7383;SDS011;3733;47.994;8.820;2023-05-23T13:46:10;14.43;;;10.30;;
7383;SDS011;3733;47.994;8.820;2023-05-23T13:48:37;13.13;;;10.20;;
7383;SDS011;3733;47.994;8.820;2023-05-23T13:51:02;12.70;;;9.67;;
7383;SDS011;3733;47.994;8.820;2023-05-23T13:53:28;14.17;;;9.50;;
7383;SDS011;3733;47.994;8.820;2023-05-23T13:55:54;16.23;;;10.10;;
7383;SDS011;3733;47.994;8.820;2023-05-23T13:58:19;10.90;;;9.70;;
7383;SDS011;3733;47.994;8.820;2023-05-23T14:00:45;12.90;;;9.00;;
7383;SDS011;3733;47.994;8.820;2023-05-23T14:03:11;13.83;;;10.43;;
7383;SDS011;3733;47.994;8.820;2023-05-23T14:05:37;9.63;;;8.63;;
7383;SDS011;3733;47.994;8.820;2023-05-23T14:08:02;13.07;;;8.87;;
7383;SDS011;3733;47.994;8.820;2023-05-23T14:10:28;11.67;;;9.30;;
7383;SDS011;3733;47.994;8.820;2023-05-23T14:12:54;12.20;;;9.93;;
7383;SDS011;3733;47.994;8.820;2023-05-23T14:15:20;14.27;;;9.00;;
7383;SDS011;3733;47.994;8.820;2023-05-23T14:17:46;12.37;;;10.30;;
7383;SDS011;3733;47.994;8.820;2023-05-23T14:20:11;10.93;;;9.20;;
7383;SDS011;3733;47.994;8.820;2023-05-23T14:22:37;11.50;;;9.07;;
7383;SDS011;3733;47.994;8.820;2023-05-23T14:25:03;11.00;;;9.10;;
7383;SDS011;3733;47.994;8.820;2023-05-23T14:27:31;10.27;;;9.10;;
7383;SDS011;3733;47.994;8.820;2023-05-23T14:29:57;12.37;;;8.60;;
7383;SDS011;3733;47.994;8.820;2023-05-23T14:32:23;10.77;;;8.83;;
7383;SDS011;3733;47.994;8.820;2023-05-23T14:34:48;11.03;;;9.33;;
7383;SDS011;3733;47.994;8.820;2023-05-23T14:37:14;11.57;;;9.00;;
7383;SDS011;3733;47.994;8.820;2023-05-23T14:39:40;11.73;;;8.73;;
7383;SDS011;3733;47.994;8.820;2023-05-23T14:42:05;10.53;;;8.60;;
7383;SDS011;3733;47.994;8.820;2023-05-23T14:44:31;12.73;;;9.90;;
7383;SDS011;3733;47.994;8.820;2023-05-23T14:46:56;11.83;;;9.83;;
7383;SDS011;3733;47.994;8.820;2023-05-23T14:49:22;16.33;;;9.17;;
7383;SDS011;3733;47.994;8.820;2023-05-23T14:51:48;17.37;;;8.93;;
7383;SDS011;3733;47.994;8.820;2023-05-23T14:54:13;11.93;;;9.20;;
7383;SDS011;3733;47.994;8.820;2023-05-23T14:56:39;11.77;;;9.03;;
7383;SDS011;3733;47.994;8.820;2023-05-23T14:59:05;13.13;;;9.50;;
7383;SDS011;3733;47.994;8.820;2023-05-23T15:01:31;10.67;;;8.40;;
7383;SDS011;3733;47.994;8.820;2023-05-23T15:03:57;16.73;;;9.70;;
7383;SDS011;3733;47.994;8.820;2023-05-23T15:06:23;12.43;;;9.50;;
7383;SDS011;3733;47.994;8.820;2023-05-23T15:08:48;11.77;;;9.83;;
7383;SDS011;3733;47.994;8.820;2023-05-23T15:11:14;9.60;;;8.30;;
7383;SDS011;3733;47.994;8.820;2023-05-23T15:13:39;11.87;;;9.50;;